Αναφορές Αεροδρομίων

 

KSJC - San Jose, California, USA
Distance from station: ΒΑ 14km
Ενημερώθηκε: 14/07/2020 10:53
Αίθριος
Αίθριος
 Ανεμος από ΝΑ
Ανεμος: ΝΑ 20 km/h
Θερμοκρασία: 14°C
Σημείο Δρόσου: 11°C
Υγρασία: 82%
Βαρόμετρο: 1012.5 hPa
Clouds: Αίθριος
Visibility: 16 km
2020/07/14 07:53 KSJC 140753Z AUTO 14011KT 10SM CLR 14/11 A2990 RMK AO2 SLP125 T01440106 402610144
KNUQ - Moffett Nas/Mtn, California, USA
Distance from station: Β 14km
Ενημερώθηκε: 14/07/2020 11:35
Αίθριος
Αίθριος
 Ανεμος από ΝΝΑ
Ανεμος: ΝΝΑ 11 km/h
Θερμοκρασία: 15°C
Σημείο Δρόσου: 11°C
Υγρασία: 77%
Βαρόμετρο: 1012.5 hPa
Clouds: Αίθριος
Visibility: 16 km
2020/07/14 08:35 KNUQ 140835Z AUTO 15006KT 10SM CLR 15/11 A2990 RMK AO2
 
KPAO - Palo Alto, California, USA
Distance from station: ΒΒΔ 23km
Ενημερώθηκε: 14/07/2020 01:47
NOT Current
Αίθριος
Αίθριος
 Ανεμος από Β
Ανεμος: Β 26 km/h, Ριπή: 39 km/h
Θερμοκρασία: 22°C
Σημείο Δρόσου: 14°C
Υγρασία: 61%
Βαρόμετρο: 1011.2 hPa
Clouds: Αίθριος
Visibility: 16 km
2020/07/13 22:47 KPAO 132247Z 35014G21KT 10SM SKC 22/14 A2986 RMK LAST
KRHV - San Jose/Reid, California, USA
Distance from station: ΑΒΑ 19km
Ενημερώθηκε: 14/07/2020 07:47
NOT Current
Αίθριος
Αίθριος
 Ανεμος από Δ
Ανεμος: Δ 7 km/h
Θερμοκρασία: 17°C
Σημείο Δρόσου: 11°C
Υγρασία: 68%
Βαρόμετρο: 1012.9 hPa
Clouds: Αίθριος
Visibility: 16 km
2020/07/14 04:47 KRHV 140447Z 28004KT 10SM SKC 17/11 A2991 RMK LAST
 
KOAK - Oakland, California, USA
Distance from station: ΒΒΔ 50km
Ενημερώθηκε: 14/07/2020 10:53
Σχεδόν νεφελώδης
Σχεδόν νεφελώδης
 Ανεμος από ΔΝΔ
Ανεμος: ΔΝΔ 15 km/h
Θερμοκρασία: 16°C
Σημείο Δρόσου: 12°C
Υγρασία: 77%
Βαρόμετρο: 1012.9 hPa
Clouds: Σχεδόν νεφελώδης
Visibility: 16 km
Cloud details: Σχεδόν νεφελώδης 488 m
2020/07/14 07:53 KOAK 140753Z 25008KT 10SM BKN016 16/12 A2991 RMK AO2 SLP126 T01610117 402170156
KSQL - San Carlos Airpo, California, USA
Distance from station: ΒΔ 34km
Ενημερώθηκε: 14/07/2020 11:35
Few Clouds
Few Clouds
 Ανεμος από Δ
Ανεμος: Δ 6 km/h
Θερμοκρασία: 15°C
Σημείο Δρόσου: 11°C
Υγρασία: 77%
Βαρόμετρο: 1012.9 hPa
Clouds: Few Clouds
Visibility: 16 km
Cloud details: Few Clouds 457 m
2020/07/14 08:35 KSQL 140835Z AUTO 27003KT 10SM FEW015 15/11 A2991 RMK AO2
 
KSFO - San Francisco, California, USA
Distance from station: ΒΔ 49km
Ενημερώθηκε: 14/07/2020 10:56
Few Clouds
Few Clouds
 Ανεμος από ΒΔ
Ανεμος: ΒΔ 6 km/h
Θερμοκρασία: 13°C
Σημείο Δρόσου: 10°C
Υγρασία: 82%
Βαρόμετρο: 1012.5 hPa
Clouds: Few Clouds
Visibility: 16 km
Cloud details: Few Clouds 183 m
2020/07/14 07:56 KSFO 140756Z 31003KT 10SM FEW006 13/10 A2990 RMK AO2 SLP124 T01330100 402280128
KE16 - San Martin, California, USA
Distance from station: ΑΝΑ 43km
Ενημερώθηκε: 14/07/2020 11:30
Συννεφιά
Συννεφιά
 Ανεμος από ΑΝΑ
Ανεμος: ΑΝΑ 22 km/h
Θερμοκρασία: 13°C
Σημείο Δρόσου: 10°C
Υγρασία: 82%
Βαρόμετρο: 1014.2 hPa
Clouds: Συννεφιά
Visibility: 14 km
Cloud details: Συννεφιά 274 m
2020/07/14 08:30 KE16 140830Z AUTO 12012KT 9SM OVC009 13/10 A2995 RMK AO2
 
KWVI - Watsonville, California, USA
Distance from station: ΝΝΑ 44km
Ενημερώθηκε: 14/07/2020 10:53
Συννεφιά
Συννεφιά
 Ανεμος από ΝΝΑ
Ανεμος: ΝΝΑ 7 km/h
Θερμοκρασία: 13°C
Σημείο Δρόσου: 12°C
Υγρασία: 94%
Βαρόμετρο: 1014.2 hPa
Clouds: Συννεφιά
Visibility: 16 km
Cloud details: Συννεφιά 244 m
2020/07/14 07:53 KWVI 140753Z AUTO 15004KT 10SM OVC008 13/12 A2995 RMK AO2 SLP142 T01330117 401830117
KHAF - Half Moon Bay, California, USA
Distance from station: ΔΒΔ 50km
Ενημερώθηκε: 14/07/2020 11:35
Haze, Συννεφιά
Haze, Συννεφιά
 Ανεμος από Ν
Ανεμος: Ν 13 km/h
Θερμοκρασία: 13°C
Σημείο Δρόσου: 10°C
Υγρασία: 82%
Βαρόμετρο: 1013.5 hPa
Περίληψη: Haze
Clouds: Συννεφιά
Visibility: 8 km
Cloud details: Συννεφιά 396 m
2020/07/14 08:35 KHAF 140835Z AUTO 17007KT 5SM HZ OVC013 13/10 A2993 RMK AO2
 
KHWD - Hayward, California, USA
Distance from station: Β 44km
Ενημερώθηκε: 14/07/2020 11:24
Μερικώς νεφελώδης
Μερικώς νεφελώδης
 Ανεμος από Δ
Ανεμος: Δ 9 km/h
Θερμοκρασία: 16°C
Σημείο Δρόσου: 12°C
Υγρασία: 77%
Βαρόμετρο: 1012.2 hPa
Clouds: Μερικώς νεφελώδης
Visibility: 16 km
Cloud details: Μερικώς νεφελώδης 457 m
2020/07/14 08:24 KHWD 140824Z AUTO 26005KT 10SM SCT015 16/12 A2989 RMK AO2 T01560117
KLVK - Livermore, California, USA
Distance from station: ΒΒΑ 51km
Ενημερώθηκε: 14/07/2020 10:53
Αίθριος
Αίθριος
 Ανεμος από ΒΔ
Ανεμος: ΒΔ 11 km/h
Θερμοκρασία: 14°C
Σημείο Δρόσου: 11°C
Υγρασία: 82%
Βαρόμετρο: 1011.9 hPa
Clouds: Αίθριος
Visibility: 14 km
2020/07/14 07:53 KLVK 140753Z AUTO 31006KT 9SM CLR 14/11 A2988 RMK AO2 SLP115 T01390111 402940139